Time;durP1;ratioP1;P1;durP2;ratioP2;P2;SDS_P1;SDS_P2;PMS_P1;PMS_P2;Temp;Humidity;BMP_temperature;BMP_pressure;BME280_temperature;BME280_humidity;BME280_pressure;Samples;Min_cycle;Max_cycle;Signal;HPM_P1;HPM_P2
2023/06/18 00:00:02;;;;;;;8.97;8.13;;;26.10;36.60;;;;;;5014367;28;20280;-48
2023/06/18 00:02:27;;;;;;;8.57;7.87;;;25.70;37.30;;;;;;5018989;28;20201;-45
2023/06/18 00:04:53;;;;;;;9.40;8.60;;;25.80;37.20;;;;;;5012144;28;20470;-46
2023/06/18 00:07:19;;;;;;;8.70;7.90;;;25.90;37.00;;;;;;5016676;28;20233;-46
2023/06/18 00:09:44;;;;;;;9.80;8.90;;;25.90;37.10;;;;;;5016528;28;20232;-45
2023/06/18 00:12:10;;;;;;;9.40;8.50;;;26.00;36.80;;;;;;5018630;28;20212;-46
2023/06/18 00:14:36;;;;;;;9.50;8.70;;;26.10;36.80;;;;;;5013514;28;20288;-50
2023/06/18 00:17:02;;;;;;;8.47;7.77;;;25.90;36.80;;;;;;5013611;28;21003;-49
2023/06/18 00:19:27;;;;;;;9.40;8.60;;;25.80;37.30;;;;;;5023209;28;22043;-47
2023/06/18 00:21:53;;;;;;;9.03;8.33;;;25.80;37.30;;;;;;5025635;28;20681;-46
2023/06/18 00:24:18;;;;;;;9.53;8.63;;;25.90;37.30;;;;;;5023277;28;20207;-45
2023/06/18 00:26:44;;;;;;;8.10;7.47;;;25.90;37.30;;;;;;5027912;28;20669;-46
2023/06/18 00:29:10;;;;;;;8.87;8.17;;;25.90;37.10;;;;;;5025008;28;20316;-45
2023/06/18 00:31:36;;;;;;;8.30;7.47;;;25.20;37.80;;;;;;5025519;28;20189;-47
2023/06/18 00:34:06;;;;;;;9.30;8.40;;;25.10;38.40;;;;;;5019883;28;20456;-48
2023/06/18 00:36:33;;;;;;;9.73;8.93;;;25.20;38.60;;;;;;5022750;28;20447;-45
2023/06/18 00:39:03;;;;;;;9.73;8.83;;;25.30;38.10;;;;;;5012504;28;20440;-47
2023/06/18 00:41:30;;;;;;;8.90;8.00;;;25.40;38.10;;;;;;5024830;28;20440;-47
2023/06/18 00:43:57;;;;;;;10.00;9.00;;;25.50;37.90;;;;;;5028368;28;20443;-46
2023/06/18 00:46:25;;;;;;;8.63;7.83;;;25.60;37.50;;;;;;5024352;28;20464;-47
2023/06/18 00:48:51;;;;;;;9.43;8.50;;;25.60;37.40;;;;;;5017012;28;20535;-46
2023/06/18 00:51:17;;;;;;;9.27;8.47;;;25.60;37.60;;;;;;5011111;28;20459;-46
2023/06/18 00:53:44;;;;;;;9.00;8.20;;;25.50;38.00;;;;;;5013048;28;20457;-46
2023/06/18 00:56:10;;;;;;;9.40;8.60;;;25.50;37.70;;;;;;5015581;28;20198;-45
2023/06/18 00:58:36;;;;;;;10.27;9.37;;;25.60;37.70;;;;;;5018291;28;20935;-47
2023/06/18 01:01:02;;;;;;;9.50;8.60;;;25.60;37.60;;;;;;5011915;28;20452;-50
2023/06/18 01:03:28;;;;;;;9.37;8.57;;;25.60;37.50;;;;;;5016596;28;20447;-49
2023/06/18 01:06:01;;;;;;;8.73;7.93;;;25.50;37.80;;;;;;5021639;28;20190;-46
2023/06/18 01:08:28;;;;;;;10.53;9.63;;;25.60;37.70;;;;;;5022329;28;20492;-45
2023/06/18 01:11:04;;;;;;;9.90;8.60;;;25.60;37.60;;;;;;5017724;28;20448;-47
2023/06/18 01:13:32;;;;;;;8.60;7.70;;;25.60;37.60;;;;;;5018808;28;20884;-47
2023/06/18 01:16:03;;;;;;;8.63;7.83;;;25.60;37.60;;;;;;5017587;28;20463;-50
2023/06/18 01:18:35;;;;;;;8.97;8.00;;;25.70;37.60;;;;;;5020615;28;20440;-46
2023/06/18 01:21:05;;;;;;;8.67;7.97;;;25.80;37.50;;;;;;5023587;28;20537;-49
2023/06/18 01:23:49;;;;;;;9.57;8.57;;;25.70;37.30;;;;;;5021203;28;20502;-47
2023/06/18 01:26:21;;;;;;;9.73;8.93;;;25.40;38.10;;;;;;5019894;28;20478;-45
2023/06/18 01:28:58;;;;;;;8.87;8.17;;;25.50;38.10;;;;;;5017777;28;20481;-46
2023/06/18 01:31:25;;;;;;;7.90;7.30;;;25.60;38.00;;;;;;5019993;28;20439;-46
2023/06/18 01:33:51;;;;;;;9.20;8.30;;;25.40;38.00;;;;;;5019486;28;20440;-51
2023/06/18 01:36:47;;;;;;;8.93;8.03;;;25.40;38.20;;;;;;5019036;28;20448;-45
2023/06/18 01:39:23;;;;;;;9.20;8.40;;;25.40;38.30;;;;;;5016008;28;20464;-45
2023/06/18 01:41:51;;;;;;;9.40;8.60;;;25.50;38.00;;;;;;5015855;28;20440;-45
2023/06/18 01:44:21;;;;;;;9.30;8.50;;;25.60;38.00;;;;;;5014967;28;20466;-47
2023/06/18 01:46:51;;;;;;;9.70;8.70;;;25.60;37.70;;;;;;5015106;28;20432;-47
2023/06/18 01:49:20;;;;;;;9.77;8.97;;;25.60;38.00;;;;;;5024990;28;20533;-48
2023/06/18 01:51:47;;;;;;;9.83;9.00;;;25.60;37.80;;;;;;5012149;28;20457;-48
2023/06/18 01:54:13;;;;;;;9.20;8.20;;;25.40;38.00;;;;;;5020736;28;20451;-46
2023/06/18 01:56:39;;;;;;;8.77;7.87;;;25.40;38.10;;;;;;5022982;28;20463;-45
2023/06/18 01:59:05;;;;;;;9.73;8.07;;;25.30;38.10;;;;;;5028555;28;20440;-45
2023/06/18 02:01:31;;;;;;;8.50;7.77;;;25.00;38.80;;;;;;5032399;28;20605;-46
2023/06/18 02:03:57;;;;;;;10.37;9.30;;;25.00;39.00;;;;;;5026159;28;20189;-50
2023/06/18 02:06:23;;;;;;;8.97;8.20;;;24.90;38.90;;;;;;5022537;28;20981;-45
2023/06/18 02:08:48;;;;;;;8.40;7.70;;;24.90;39.00;;;;;;5024306;28;20489;-46
2023/06/18 02:11:14;;;;;;;9.00;8.20;;;25.00;39.00;;;;;;5018155;28;20198;-45
2023/06/18 02:13:39;;;;;;;8.83;8.03;;;25.00;39.00;;;;;;5026320;28;21627;-47
2023/06/18 02:16:05;;;;;;;8.70;7.90;;;25.10;38.80;;;;;;5017906;28;20280;-49
2023/06/18 02:18:31;;;;;;;9.07;8.27;;;25.20;38.80;;;;;;5029388;28;20213;-46
2023/06/18 02:20:57;;;;;;;9.33;8.43;;;25.20;38.70;;;;;;5029888;28;20274;-46
2023/06/18 02:23:23;;;;;;;8.97;8.17;;;25.20;38.40;;;;;;5025066;28;20444;-47
2023/06/18 02:25:48;;;;;;;8.87;8.10;;;25.20;38.70;;;;;;5026429;28;20683;-47
2023/06/18 02:28:14;;;;;;;10.20;9.17;;;25.00;38.70;;;;;;5026133;28;20282;-46
2023/06/18 02:30:39;;;;;;;9.50;8.80;;;24.90;38.90;;;;;;5023906;28;20271;-48
2023/06/18 02:33:10;;;;;;;8.80;8.10;;;24.40;39.50;;;;;;5028585;28;20281;-51
2023/06/18 02:35:35;;;;;;;8.83;8.13;;;24.40;40.00;;;;;;5026089;28;20198;-50
2023/06/18 02:38:02;;;;;;;8.73;8.00;;;24.40;39.80;;;;;;5026154;28;20448;-51
2023/06/18 02:40:27;;;;;;;9.07;8.30;;;24.60;39.90;;;;;;5027157;28;20229;-50
2023/06/18 02:42:54;;;;;;;8.83;8.03;;;24.60;40.20;;;;;;5024772;28;20483;-51
2023/06/18 02:45:23;;;;;;;8.90;7.90;;;24.70;39.60;;;;;;5024075;28;20205;-51
2023/06/18 02:47:49;;;;;;;8.60;7.90;;;24.80;39.40;;;;;;5024019;28;20427;-51
2023/06/18 02:50:16;;;;;;;9.13;8.30;;;24.90;39.10;;;;;;5019662;28;20488;-51
2023/06/18 02:52:43;;;;;;;9.20;8.40;;;25.00;39.00;;;;;;5012513;28;20433;-52
2023/06/18 02:55:10;;;;;;;9.43;8.63;;;25.00;39.00;;;;;;5027332;28;20480;-51
2023/06/18 02:57:36;;;;;;;9.20;8.40;;;24.90;38.90;;;;;;5013046;28;20448;-51
2023/06/18 03:00:11;;;;;;;8.80;8.10;;;25.00;38.90;;;;;;5017708;28;21127;-52
2023/06/18 03:02:37;;;;;;;12.47;9.00;;;25.00;38.80;;;;;;5024399;28;20443;-51
2023/06/18 03:05:04;;;;;;;9.97;8.40;;;25.00;39.00;;;;;;5028309;28;20443;-51
2023/06/18 03:07:30;;;;;;;9.70;8.90;;;25.00;39.00;;;;;;5027418;28;20932;-49
2023/06/18 03:09:56;;;;;;;8.90;8.00;;;24.80;38.90;;;;;;5021039;28;20492;-51
2023/06/18 03:12:21;;;;;;;9.80;8.10;;;24.90;39.10;;;;;;5017369;28;20449;-47
2023/06/18 03:14:47;;;;;;;10.03;9.13;;;24.90;38.90;;;;;;5012750;28;21000;-48
2023/06/18 03:17:12;;;;;;;9.27;8.47;;;24.80;38.90;;;;;;5027394;28;20197;-48
2023/06/18 03:19:38;;;;;;;8.77;8.07;;;24.80;39.20;;;;;;5019492;28;20208;-49
2023/06/18 03:22:05;;;;;;;9.47;8.57;;;24.80;39.30;;;;;;5016429;28;20664;-51
2023/06/18 03:24:32;;;;;;;9.20;8.50;;;24.80;39.40;;;;;;5016155;28;20209;-48
2023/06/18 03:26:58;;;;;;;8.50;7.70;;;24.80;39.10;;;;;;5019754;28;20440;-50
2023/06/18 03:29:30;;;;;;;9.53;8.77;;;24.80;38.70;;;;;;5020839;28;20507;-48
2023/06/18 03:31:56;;;;;;;10.67;8.23;;;24.80;39.00;;;;;;5014233;28;20512;-49
2023/06/18 03:34:22;;;;;;;9.40;7.83;;;24.80;39.10;;;;;;5029291;28;20467;-50
2023/06/18 03:36:49;;;;;;;9.33;8.50;;;24.90;39.00;;;;;;5030132;28;20671;-46
2023/06/18 03:39:15;;;;;;;8.87;7.97;;;25.00;39.00;;;;;;5030142;28;20435;-46
2023/06/18 03:41:41;;;;;;;8.60;8.00;;;25.00;38.80;;;;;;5027012;28;20516;-46
2023/06/18 03:44:07;;;;;;;9.30;8.40;;;24.90;38.90;;;;;;5021253;28;20510;-46
2023/06/18 03:46:32;;;;;;;9.90;8.97;;;25.00;38.80;;;;;;5014196;28;20925;-45
2023/06/18 03:48:58;;;;;;;8.40;7.80;;;24.80;38.70;;;;;;5018541;28;20695;-46
2023/06/18 03:51:25;;;;;;;10.07;9.27;;;24.80;39.10;;;;;;5021166;28;20239;-46
2023/06/18 03:53:51;;;;;;;9.30;8.50;;;24.70;39.10;;;;;;5013589;28;20213;-48
2023/06/18 03:56:17;;;;;;;9.93;9.10;;;24.80;39.40;;;;;;5014894;28;20807;-48
2023/06/18 03:58:43;;;;;;;9.83;8.70;;;24.70;38.90;;;;;;5023058;28;20197;-45
2023/06/18 04:01:12;;;;;;;8.90;8.10;;;24.60;39.60;;;;;;5020614;28;20453;-49
2023/06/18 04:03:38;;;;;;;8.80;8.00;;;24.70;39.60;;;;;;5013233;28;20671;-47
2023/06/18 04:06:04;;;;;;;12.00;9.67;;;24.80;39.30;;;;;;5018609;28;20432;-47
2023/06/18 04:08:30;;;;;;;9.27;8.40;;;24.80;39.00;;;;;;5028973;28;20240;-47
2023/06/18 04:10:56;;;;;;;8.77;8.07;;;24.80;39.10;;;;;;5025488;28;20463;-45
2023/06/18 04:13:22;;;;;;;9.53;8.73;;;24.80;39.10;;;;;;5019400;28;20432;-49
2023/06/18 04:15:48;;;;;;;10.73;9.63;;;24.90;39.00;;;;;;5018819;28;20568;-49
2023/06/18 04:18:14;;;;;;;8.63;7.83;;;25.00;38.90;;;;;;5017216;28;20451;-48
2023/06/18 04:20:40;;;;;;;10.03;9.20;;;25.00;38.70;;;;;;5019365;28;20445;-46
2023/06/18 04:23:06;;;;;;;9.60;8.63;;;24.90;38.80;;;;;;5016907;28;20649;-46
2023/06/18 04:25:32;;;;;;;9.07;8.37;;;24.90;39.00;;;;;;5016869;28;20268;-51
2023/06/18 04:27:58;;;;;;;9.80;9.00;;;24.80;38.80;;;;;;5015039;28;20418;-46
2023/06/18 04:30:24;;;;;;;9.53;8.73;;;24.30;39.60;;;;;;5027382;28;20444;-50
2023/06/18 04:32:50;;;;;;;9.63;8.73;;;24.30;39.70;;;;;;5023172;28;20542;-49
2023/06/18 04:35:16;;;;;;;9.70;8.70;;;24.30;39.90;;;;;;5025184;28;20532;-50
2023/06/18 04:37:42;;;;;;;8.10;7.40;;;24.20;40.10;;;;;;5018972;28;20193;-46
2023/06/18 04:40:08;;;;;;;9.40;8.60;;;24.40;40.00;;;;;;5026485;28;20444;-45
2023/06/18 04:42:35;;;;;;;10.70;9.67;;;24.50;39.70;;;;;;5020790;28;20521;-51
2023/06/18 04:45:01;;;;;;;9.57;8.67;;;24.60;39.50;;;;;;5016446;28;20455;-45
2023/06/18 04:47:27;;;;;;;8.83;7.87;;;24.30;39.70;;;;;;5024566;28;20947;-50
2023/06/18 04:49:54;;;;;;;9.50;8.60;;;24.20;40.30;;;;;;5026404;28;20902;-47
2023/06/18 04:52:19;;;;;;;9.87;8.97;;;24.00;40.70;;;;;;5021166;28;20449;-47
2023/06/18 04:54:45;;;;;;;10.07;9.17;;;23.90;40.90;;;;;;5023719;28;20197;-49
2023/06/18 04:57:10;;;;;;;9.83;8.80;;;24.10;40.90;;;;;;5027429;28;20235;-45
2023/06/18 04:59:41;;;;;;;8.33;7.23;;;24.30;40.60;;;;;;5018233;28;20193;-45
2023/06/18 05:02:06;;;;;;;7.77;7.10;;;24.20;40.70;;;;;;5022312;28;20193;-47
2023/06/18 05:04:32;;;;;;;9.50;8.60;;;24.20;41.00;;;;;;5017444;28;20446;-49
2023/06/18 05:06:58;;;;;;;8.17;7.37;;;24.40;40.50;;;;;;5025964;28;20220;-46
2023/06/18 05:09:26;;;;;;;7.43;6.73;;;24.50;40.60;;;;;;5031898;28;20256;-45
2023/06/18 05:11:51;;;;;;;8.77;7.90;;;24.50;40.40;;;;;;5029252;28;20472;-48
2023/06/18 05:14:17;;;;;;;8.70;7.90;;;24.80;40.10;;;;;;5027502;28;20546;-46
2023/06/18 05:16:42;;;;;;;13.40;8.80;;;25.00;39.80;;;;;;5024205;28;20204;-49
2023/06/18 05:19:08;;;;;;;18.47;8.97;;;25.00;39.80;;;;;;5024102;28;20300;-47
2023/06/18 05:21:33;;;;;;;9.13;8.30;;;25.20;39.20;;;;;;5031131;28;20201;-45
2023/06/18 05:23:59;;;;;;;8.07;7.27;;;24.70;40.30;;;;;;5030910;28;20203;-46
2023/06/18 05:26:25;;;;;;;9.10;8.27;;;24.10;40.50;;;;;;5030521;28;20193;-45
2023/06/18 05:28:51;;;;;;;8.73;7.93;;;24.10;41.10;;;;;;5025060;28;20240;-47
2023/06/18 05:31:16;;;;;;;8.60;7.90;;;24.30;40.80;;;;;;5026295;28;20439;-47
2023/06/18 05:33:42;;;;;;;9.00;8.20;;;24.50;40.40;;;;;;5029000;28;20194;-45
2023/06/18 05:36:07;;;;;;;10.30;9.17;;;24.80;40.20;;;;;;5024950;28;20193;-45
2023/06/18 05:38:33;;;;;;;9.87;8.90;;;24.80;39.90;;;;;;5026857;28;20232;-45
2023/06/18 05:40:59;;;;;;;9.20;8.40;;;24.90;39.70;;;;;;5027540;28;20274;-47
2023/06/18 05:43:24;;;;;;;9.30;8.50;;;24.80;40.20;;;;;;5023367;28;20284;-45
2023/06/18 05:48:59;;;;;;;8.70;8.00;;;25.20;39.50;;;;;;5053469;22;20271;-47
2023/06/18 05:51:24;;;;;;;9.70;7.93;;;24.90;39.20;;;;;;5029505;28;20539;-47
2023/06/18 05:53:50;;;;;;;10.73;8.70;;;24.50;39.70;;;;;;5028572;28;20201;-46
2023/06/18 05:56:15;;;;;;;9.13;8.23;;;24.30;40.10;;;;;;5025465;28;20198;-44
2023/06/18 05:58:41;;;;;;;8.97;8.27;;;24.00;40.70;;;;;;5027262;28;20190;-46
2023/06/18 06:01:07;;;;;;;8.30;7.63;;;23.70;41.10;;;;;;5029963;28;20190;-47
2023/06/18 06:03:35;;;;;;;8.63;7.83;;;23.40;42.10;;;;;;5027164;28;20436;-47
2023/06/18 06:06:01;;;;;;;9.23;8.30;;;23.70;41.80;;;;;;5028841;28;20193;-53
2023/06/18 06:08:26;;;;;;;9.10;8.20;;;24.10;41.50;;;;;;5023000;28;20960;-48
2023/06/18 06:10:52;;;;;;;8.67;7.83;;;24.40;41.00;;;;;;5013832;28;20455;-48
2023/06/18 06:13:19;;;;;;;9.30;8.40;;;24.70;40.70;;;;;;5025520;28;20193;-46
2023/06/18 06:15:44;;;;;;;9.93;9.03;;;25.00;40.00;;;;;;5022694;28;20189;-47
2023/06/18 06:18:10;;;;;;;9.10;8.23;;;25.20;39.80;;;;;;5014958;28;20440;-45
2023/06/18 06:20:35;;;;;;;9.23;7.77;;;25.40;39.40;;;;;;5031030;28;20269;-45
2023/06/18 06:23:01;;;;;;;8.83;8.03;;;25.50;39.00;;;;;;5026624;28;20204;-46
2023/06/18 06:25:26;;;;;;;8.83;8.13;;;25.50;38.90;;;;;;5028789;28;20189;-48
2023/06/18 06:27:52;;;;;;;9.23;8.43;;;25.40;39.00;;;;;;5027819;28;20648;-47
2023/06/18 06:30:17;;;;;;;9.27;8.43;;;25.40;39.20;;;;;;5024089;28;20236;-51
2023/06/18 06:32:43;;;;;;;9.57;8.67;;;25.20;39.30;;;;;;5028885;28;20193;-47
2023/06/18 06:35:09;;;;;;;9.50;8.60;;;24.80;39.40;;;;;;5027368;28;20193;-48
2023/06/18 06:37:35;;;;;;;8.90;8.20;;;24.50;40.30;;;;;;5030101;28;20240;-46
2023/06/18 06:40:01;;;;;;;10.33;9.33;;;24.20;40.70;;;;;;5024302;28;20284;-51
2023/06/18 06:42:26;;;;;;;8.23;7.53;;;24.20;41.10;;;;;;5025493;28;20908;-49
2023/06/18 06:44:52;;;;;;;10.13;9.13;;;23.90;41.50;;;;;;5031316;28;20280;-46
2023/06/18 06:47:18;;;;;;;8.63;7.87;;;24.20;41.50;;;;;;5031691;28;20264;-50
2023/06/18 06:49:45;;;;;;;9.00;8.20;;;24.20;40.70;;;;;;5029642;28;20585;-48
2023/06/18 06:52:11;;;;;;;8.83;8.07;;;24.40;40.20;;;;;;5027229;28;20198;-47
2023/06/18 06:54:36;;;;;;;8.20;7.10;;;24.50;39.70;;;;;;4995047;28;20805;-48
2023/06/18 06:57:02;;;;;;;8.80;8.10;;;24.60;39.50;;;;;;5019794;28;20447;-49
2023/06/18 06:59:28;;;;;;;8.37;7.57;;;24.90;38.90;;;;;;5018782;28;20197;-48
2023/06/18 07:01:53;;;;;;;9.70;8.03;;;25.00;39.10;;;;;;5020167;28;20265;-48
2023/06/18 07:04:19;;;;;;;8.37;7.57;;;25.10;39.30;;;;;;5023453;28;20555;-48
2023/06/18 07:06:45;;;;;;;9.17;8.37;;;25.50;38.70;;;;;;5026749;28;20303;-50
2023/06/18 07:09:10;;;;;;;8.60;7.77;;;25.80;38.20;;;;;;5028952;28;20294;-51
2023/06/18 07:11:37;;;;;;;10.10;8.40;;;25.70;37.80;;;;;;5029312;28;20189;-53
2023/06/18 07:14:03;;;;;;;9.07;8.37;;;25.90;37.30;;;;;;5021764;28;20193;-50
2023/06/18 07:16:28;;;;;;;9.00;8.10;;;26.30;36.80;;;;;;5029744;28;20444;-52
2023/06/18 07:18:54;;;;;;;8.87;8.17;;;26.60;35.80;;;;;;5030246;28;20446;-52
2023/06/18 07:21:20;;;;;;;8.60;7.80;;;26.90;36.00;;;;;;5031427;28;20205;-49
2023/06/18 07:23:45;;;;;;;8.63;8.03;;;27.20;35.80;;;;;;5022433;28;20264;-51
2023/06/18 07:26:11;;;;;;;8.60;7.90;;;27.40;35.40;;;;;;5026238;28;20909;-50
2023/06/18 07:28:36;;;;;;;7.60;7.00;;;27.70;35.40;;;;;;5027385;28;20549;-50
2023/06/18 07:31:02;;;;;;;8.50;7.70;;;28.00;35.10;;;;;;5031179;28;20182;-49
2023/06/18 07:33:28;;;;;;;9.20;8.30;;;28.20;34.60;;;;;;5029426;28;20219;-50
2023/06/18 07:35:54;;;;;;;8.93;8.23;;;28.30;33.90;;;;;;5030049;28;20507;-48
2023/06/18 07:38:22;;;;;;;10.20;8.43;;;28.50;34.20;;;;;;5026376;28;20198;-54
2023/06/18 07:40:48;;;;;;;8.80;8.00;;;28.70;33.90;;;;;;5030141;28;20643;-50
2023/06/18 07:43:14;;;;;;;8.40;7.67;;;28.50;33.20;;;;;;5029475;28;20431;-47
2023/06/18 07:45:39;;;;;;;8.40;7.70;;;28.80;33.10;;;;;;5031266;28;20678;-46
2023/06/18 07:48:07;;;;;;;8.90;7.70;;;29.00;32.80;;;;;;5027577;28;20319;-51
2023/06/18 07:50:33;;;;;;;8.97;8.27;;;29.20;32.80;;;;;;5019218;28;20260;-51
2023/06/18 07:52:59;;;;;;;8.50;7.70;;;29.30;32.20;;;;;;5014737;28;20450;-49
2023/06/18 07:55:24;;;;;;;8.57;7.97;;;29.50;32.10;;;;;;5022242;28;20787;-52
2023/06/18 07:57:50;;;;;;;8.00;7.40;;;29.60;31.80;;;;;;5018166;28;21212;-52
2023/06/18 08:00:16;;;;;;;8.40;7.70;;;29.70;31.50;;;;;;5027619;28;20280;-47
2023/06/18 08:02:42;;;;;;;9.33;8.57;;;29.90;31.10;;;;;;5025704;28;20193;-52
2023/06/18 08:05:08;;;;;;;9.07;8.37;;;30.00;30.80;;;;;;5029086;28;20201;-53
2023/06/18 08:07:35;;;;;;;8.90;8.00;;;30.10;31.50;;;;;;5026801;28;20494;-50
2023/06/18 08:10:01;;;;;;;8.60;7.80;;;30.20;31.20;;;;;;5024746;28;20654;-51
2023/06/18 08:12:26;;;;;;;8.67;7.97;;;30.40;31.30;;;;;;5023702;28;20508;-50
2023/06/18 08:14:52;;;;;;;8.63;7.83;;;30.50;30.90;;;;;;5018269;28;20212;-48
2023/06/18 08:17:17;;;;;;;8.40;7.70;;;30.70;31.60;;;;;;5027624;28;20201;-52
2023/06/18 08:19:47;;;;;;;8.90;8.00;;;30.90;30.90;;;;;;5023707;28;20280;-47
2023/06/18 08:22:15;;;;;;;9.13;8.43;;;31.10;30.70;;;;;;5030642;28;20201;-52
2023/06/18 08:24:41;;;;;;;10.10;9.23;;;31.30;30.50;;;;;;5023739;28;20954;-48
2023/06/18 08:27:06;;;;;;;8.87;8.17;;;31.30;30.00;;;;;;5021533;28;20451;-49
2023/06/18 08:29:32;;;;;;;9.50;8.20;;;31.30;30.40;;;;;;5025191;28;20484;-52
2023/06/18 08:32:04;;;;;;;11.17;7.87;;;31.40;30.60;;;;;;5009695;28;20201;-52
2023/06/18 08:34:42;;;;;;;9.57;7.87;;;31.60;30.00;;;;;;5024202;28;20198;-54
2023/06/18 08:37:08;;;;;;;9.63;8.93;;;31.60;30.30;;;;;;5027999;28;20458;-47
2023/06/18 08:39:33;;;;;;;8.50;7.90;;;31.90;29.40;;;;;;5028638;28;20443;-48
2023/06/18 08:42:00;;;;;;;9.07;8.17;;;32.10;29.20;;;;;;5026054;28;20751;-52
2023/06/18 08:44:27;;;;;;;7.93;7.30;;;32.30;29.30;;;;;;5028101;28;20201;-47
2023/06/18 08:46:56;;;;;;;8.03;7.43;;;32.50;29.70;;;;;;5026277;28;20446;-53
2023/06/18 08:49:24;;;;;;;8.80;8.00;;;32.70;29.60;;;;;;5022178;28;21044;-51
2023/06/18 08:51:53;;;;;;;8.37;7.63;;;32.90;29.00;;;;;;5023067;28;20440;-50
2023/06/18 08:54:19;;;;;;;8.10;7.30;;;33.00;27.60;;;;;;5025335;28;20502;-49
2023/06/18 08:56:54;;;;;;;7.63;7.03;;;33.20;27.90;;;;;;5026868;28;20850;-50
2023/06/18 08:59:21;;;;;;;7.73;7.13;;;33.40;26.60;;;;;;5024774;28;20451;-54
2023/06/18 09:01:48;;;;;;;9.63;8.77;;;33.40;26.40;;;;;;5023469;28;20848;-48
2023/06/18 09:04:14;;;;;;;8.17;7.57;;;33.40;26.70;;;;;;5027428;28;20440;-48
2023/06/18 09:06:42;;;;;;;7.70;7.20;;;33.60;26.40;;;;;;5023609;28;20447;-49
2023/06/18 09:09:07;;;;;;;7.80;7.00;;;33.70;25.70;;;;;;5023266;28;20487;-49
2023/06/18 09:11:33;;;;;;;8.53;7.83;;;33.90;25.70;;;;;;5024331;28;21006;-49
2023/06/18 09:13:59;;;;;;;8.30;7.60;;;34.20;25.90;;;;;;5022812;28;20218;-51
2023/06/18 09:16:25;;;;;;;8.67;8.07;;;34.50;25.60;;;;;;5027634;28;20208;-51
2023/06/18 09:18:51;;;;;;;8.23;7.63;;;34.30;24.50;;;;;;5018077;28;20216;-47
2023/06/18 09:21:38;;;;;;;7.83;7.17;;;34.50;24.10;;;;;;5029883;28;20570;-47
2023/06/18 09:24:09;;;;;;;7.57;6.90;;;34.60;23.10;;;;;;5019784;28;20457;-51
2023/06/18 09:26:35;;;;;;;8.60;7.20;;;34.80;23.30;;;;;;5021897;28;20530;-49
2023/06/18 09:29:05;;;;;;;8.40;7.80;;;35.00;23.70;;;;;;5029715;28;20499;-51
2023/06/18 09:31:31;;;;;;;6.80;6.40;;;35.10;23.30;;;;;;5023835;28;20427;-50
2023/06/18 09:33:57;;;;;;;9.40;8.53;;;35.20;23.00;;;;;;5021284;28;20448;-50
2023/06/18 09:36:25;;;;;;;7.27;6.57;;;34.60;22.80;;;;;;5027915;28;20799;-50
2023/06/18 09:38:53;;;;;;;7.93;7.13;;;34.70;23.40;;;;;;5028047;28;20310;-52
2023/06/18 09:41:19;;;;;;;7.10;6.60;;;34.90;22.70;;;;;;5023024;28;21060;-52
2023/06/18 09:43:48;;;;;;;7.30;6.80;;;35.20;22.50;;;;;;5028735;28;20530;-51
2023/06/18 09:46:14;;;;;;;7.87;7.30;;;35.40;22.50;;;;;;5024566;28;20197;-51
2023/06/18 09:48:42;;;;;;;8.37;7.57;;;35.60;22.00;;;;;;5027000;28;20486;-50
2023/06/18 09:51:08;;;;;;;12.53;7.30;;;35.70;21.90;;;;;;5031315;28;20554;-50
2023/06/18 09:53:34;;;;;;;8.50;7.70;;;35.80;21.80;;;;;;5025988;28;20526;-49
2023/06/18 09:56:14;;;;;;;7.50;6.80;;;36.00;21.90;;;;;;5023056;28;20335;-51
2023/06/18 09:58:45;;;;;;;8.20;7.40;;;35.80;21.70;;;;;;5021789;28;20451;-51
2023/06/18 10:01:11;;;;;;;8.40;7.70;;;35.90;21.90;;;;;;5023884;28;20514;-54
2023/06/18 10:03:37;;;;;;;7.17;6.57;;;35.70;21.90;;;;;;5029200;28;21026;-51
2023/06/18 10:06:11;;;;;;;6.80;6.20;;;35.50;21.20;;;;;;5030154;28;20189;-52
2023/06/18 10:08:42;;;;;;;7.00;6.50;;;35.80;21.30;;;;;;5021251;28;20487;-53
2023/06/18 10:11:09;;;;;;;6.83;6.33;;;36.10;20.90;;;;;;5026990;28;20443;-51
2023/06/18 10:13:45;;;;;;;7.40;6.70;;;36.40;20.20;;;;;;5022996;28;20450;-54
2023/06/18 10:16:13;;;;;;;7.40;6.70;;;36.50;20.00;;;;;;5023351;28;20442;-51
2023/06/18 10:18:47;;;;;;;6.77;6.27;;;36.30;20.00;;;;;;5024302;28;20443;-53
2023/06/18 10:21:14;;;;;;;7.07;6.47;;;36.50;19.90;;;;;;5031663;28;20443;-51
2023/06/18 10:23:40;;;;;;;7.00;6.50;;;36.70;20.00;;;;;;5025790;28;20980;-50
2023/06/18 10:26:06;;;;;;;7.13;6.63;;;36.90;19.70;;;;;;5019635;28;20479;-51
2023/06/18 10:28:33;;;;;;;7.17;6.67;;;36.90;19.50;;;;;;5029699;28;20912;-53
2023/06/18 10:30:59;;;;;;;7.47;6.97;;;36.60;19.40;;;;;;5030769;28;20271;-54
2023/06/18 10:33:26;;;;;;;6.87;6.37;;;36.80;19.80;;;;;;5025807;28;20437;-52
2023/06/18 10:35:53;;;;;;;7.23;6.73;;;37.10;19.50;;;;;;5029123;28;20447;-53
2023/06/18 10:38:19;;;;;;;7.00;6.50;;;37.00;19.90;;;;;;5016259;28;20451;-51
2023/06/18 10:40:45;;;;;;;8.40;7.40;;;37.10;19.80;;;;;;5027933;28;20439;-54
2023/06/18 10:43:10;;;;;;;7.80;7.10;;;37.30;19.60;;;;;;5031736;28;21122;-51
2023/06/18 10:45:36;;;;;;;10.20;7.10;;;37.00;19.10;;;;;;5027729;28;20199;-51
2023/06/18 10:48:22;;;;;;;7.67;6.97;;;36.60;19.50;;;;;;5030128;28;20269;-51
2023/06/18 10:51:12;;;;;;;8.03;7.33;;;36.10;20.00;;;;;;5014447;28;20212;-51
2023/06/18 10:53:38;;;;;;;7.33;6.80;;;35.70;20.60;;;;;;5021034;28;20463;-51
2023/06/18 10:56:03;;;;;;;8.17;6.87;;;36.10;20.30;;;;;;5027317;28;20444;-53
2023/06/18 10:58:33;;;;;;;8.50;6.77;;;36.50;19.80;;;;;;5030387;28;20302;-49
2023/06/18 11:00:59;;;;;;;6.70;6.20;;;37.00;19.60;;;;;;5025471;28;20202;-53
2023/06/18 11:03:33;;;;;;;6.90;6.10;;;37.10;19.60;;;;;;5026196;28;20439;-52
2023/06/18 11:06:01;;;;;;;6.93;6.43;;;37.50;18.80;;;;;;5027177;28;20522;-54
2023/06/18 11:08:30;;;;;;;7.03;6.30;;;37.80;19.00;;;;;;5016769;28;20858;-49
2023/06/18 11:11:07;;;;;;;6.87;6.37;;;38.10;19.00;;;;;;5027907;28;20454;-47
2023/06/18 11:13:53;;;;;;;6.70;6.10;;;38.10;18.90;;;;;;5021507;28;20482;-49
2023/06/18 11:16:19;;;;;;;7.73;7.03;;;38.50;19.40;;;;;;5021112;28;20444;-51
2023/06/18 11:18:46;;;;;;;7.40;6.87;;;38.80;18.60;;;;;;5024869;28;20450;-51
2023/06/18 11:21:19;;;;;;;7.07;6.57;;;38.80;18.20;;;;;;5024344;28;20855;-51
2023/06/18 11:23:46;;;;;;;7.57;6.97;;;38.30;18.60;;;;;;5026756;28;20459;-53
2023/06/18 11:26:17;;;;;;;6.90;6.40;;;38.50;18.40;;;;;;5026348;28;20486;-51
2023/06/18 11:28:42;;;;;;;7.23;6.63;;;38.70;18.80;;;;;;5030795;28;20495;-53
2023/06/18 11:31:08;;;;;;;6.50;6.10;;;38.80;18.30;;;;;;5025038;28;20534;-54
2023/06/18 11:33:34;;;;;;;6.23;5.83;;;39.00;18.30;;;;;;5017442;28;20193;-49
2023/06/18 11:36:26;;;;;;;6.60;6.20;;;39.20;18.80;;;;;;5026045;28;20454;-52
2023/06/18 11:38:56;;;;;;;7.03;6.43;;;39.30;18.00;;;;;;5023722;28;20296;-52
2023/06/18 11:41:22;;;;;;;6.53;5.87;;;38.70;18.10;;;;;;5031098;28;20517;-53
2023/06/18 11:43:52;;;;;;;7.50;6.80;;;38.50;18.70;;;;;;5030590;28;20481;-47
2023/06/18 11:46:37;;;;;;;7.90;7.30;;;38.30;18.50;;;;;;5028956;28;20196;-50
2023/06/18 11:49:03;;;;;;;6.47;5.97;;;37.30;19.20;;;;;;5026602;28;20858;-52
2023/06/18 11:51:30;;;;;;;7.00;6.17;;;37.20;19.10;;;;;;5028999;28;20446;-51
2023/06/18 11:53:56;;;;;;;5.70;5.30;;;37.70;18.70;;;;;;5023718;28;22702;-52
2023/06/18 11:56:27;;;;;;;6.60;5.77;;;38.10;18.20;;;;;;5027154;28;20526;-53
2023/06/18 11:58:55;;;;;;;6.50;6.00;;;38.20;18.50;;;;;;5030181;28;20220;-53
2023/06/18 12:01:28;;;;;;;6.47;5.97;;;38.50;18.30;;;;;;5031052;28;20438;-53
2023/06/18 12:04:07;;;;;;;7.03;6.53;;;38.70;18.20;;;;;;5030071;28;20518;-53
2023/06/18 12:06:34;;;;;;;6.80;6.30;;;38.70;18.40;;;;;;5029612;28;20853;-50
2023/06/18 12:09:07;;;;;;;6.83;6.23;;;38.30;18.10;;;;;;5017265;28;20950;-52
2023/06/18 12:11:48;;;;;;;6.10;5.60;;;38.00;18.70;;;;;;5028050;28;20447;-52
2023/06/18 12:14:37;;;;;;;6.63;6.10;;;38.30;18.50;;;;;;5023939;28;20549;-53
2023/06/18 12:17:10;;;;;;;7.30;6.10;;;38.70;18.60;;;;;;5030564;28;20427;-53
2023/06/18 12:19:40;;;;;;;6.10;5.60;;;39.00;18.70;;;;;;5029896;28;20436;-54
2023/06/18 12:22:05;;;;;;;6.17;5.67;;;39.00;18.30;;;;;;5030200;28;20488;-53
2023/06/18 12:24:31;;;;;;;6.40;6.00;;;39.20;18.40;;;;;;5028040;28;20455;-53
2023/06/18 12:26:57;;;;;;;6.50;5.93;;;39.50;18.20;;;;;;5026875;28;20212;-48
2023/06/18 12:29:26;;;;;;;6.57;6.17;;;39.60;17.80;;;;;;5026502;28;20225;-53
2023/06/18 12:32:04;;;;;;;6.30;5.80;;;39.70;17.60;;;;;;5029372;28;20683;-52
2023/06/18 12:34:34;;;;;;;6.07;5.50;;;39.50;17.40;;;;;;5029983;28;20840;-53
2023/06/18 12:37:00;;;;;;;6.40;5.90;;;39.50;17.90;;;;;;5029786;28;20431;-50
2023/06/18 12:39:25;;;;;;;5.90;5.50;;;39.60;17.60;;;;;;5028950;28;20798;-53
2023/06/18 12:41:51;;;;;;;7.00;6.30;;;39.90;18.00;;;;;;5023634;28;20665;-53
2023/06/18 12:44:19;;;;;;;6.57;5.97;;;40.10;18.20;;;;;;5025563;28;20279;-51
2023/06/18 12:46:45;;;;;;;6.60;6.00;;;40.20;17.30;;;;;;5026745;28;20224;-53
2023/06/18 12:49:14;;;;;;;6.00;5.60;;;40.20;17.60;;;;;;5029324;28;20483;-53